createdAt,value
2022-10-07T00:01:15.838Z,82.96
2022-10-07T00:11:27.147Z,83.29
2022-10-07T00:21:34.389Z,82.85
2022-10-07T00:31:42.222Z,83.34
2022-10-07T00:42:01.251Z,84.57
2022-10-07T00:52:11.233Z,84.80
2022-10-07T01:02:19.757Z,86.59
2022-10-07T01:23:23.345Z,87.16
2022-10-07T01:33:33.903Z,87.66
2022-10-07T01:43:54.092Z,86.98
2022-10-07T01:54:12.112Z,86.90
2022-10-07T02:04:43.712Z,86.54
2022-10-07T02:14:57.526Z,85.96
2022-10-07T02:25:35.948Z,86.60
2022-10-07T02:35:53.735Z,86.73
2022-10-07T02:46:08.208Z,86.66
2022-10-07T02:56:20.521Z,86.76
2022-10-07T03:06:30.888Z,86.82
2022-10-07T03:16:35.865Z,87.07
2022-10-07T03:26:54.070Z,86.88
2022-10-07T03:47:39.709Z,89.79
2022-10-07T03:57:59.169Z,87.83
2022-10-07T04:08:12.070Z,89.48
2022-10-07T04:29:39.111Z,90.01
2022-10-07T04:50:17.783Z,90.54
2022-10-07T05:00:36.061Z,89.67
2022-10-07T05:21:34.364Z,89.34
2022-10-07T05:31:48.743Z,88.93
2022-10-07T05:41:54.781Z,86.52
2022-10-07T05:52:24.746Z,85.80
2022-10-07T06:02:50.610Z,86.21
2022-10-07T06:13:08.507Z,84.15
2022-10-07T06:23:50.434Z,80.49
2022-10-07T06:34:17.024Z,80.21
2022-10-07T06:44:46.483Z,78.69
2022-10-07T06:55:19.352Z,76.75
2022-10-07T07:05:28.879Z,74.04
2022-10-07T07:16:05.709Z,72.70
2022-10-07T07:26:15.976Z,71.18
2022-10-07T07:36:31.953Z,70.73
2022-10-07T07:46:49.336Z,69.72
2022-10-07T07:56:54.549Z,67.42
2022-10-07T08:07:03.858Z,67.06
2022-10-07T08:17:08.759Z,68.83
2022-10-07T08:27:20.275Z,66.96
2022-10-07T08:37:30.453Z,67.68
2022-10-07T08:47:47.456Z,69.29
2022-10-07T08:58:16.827Z,69.80
2022-10-07T09:08:44.377Z,67.39
2022-10-07T09:19:00.495Z,65.45
2022-10-07T09:39:39.747Z,66.65
2022-10-07T09:49:53.863Z,63.29
2022-10-07T10:00:26.824Z,63.27
2022-10-07T10:33:16.569Z,58.83
2022-10-07T10:43:31.998Z,58.36
2022-10-07T10:53:49.940Z,58.93
2022-10-07T11:04:23.896Z,56.94
2022-10-07T11:14:31.838Z,57.80
2022-10-07T11:24:44.100Z,57.61
2022-10-07T11:45:20.209Z,58.46
2022-10-07T11:55:41.259Z,58.99
2022-10-07T12:06:14.319Z,59.12
2022-10-07T12:16:52.217Z,58.29
2022-10-07T12:27:08.696Z,57.93
2022-10-07T12:37:46.758Z,58.76
2022-10-07T12:48:06.366Z,57.58
2022-10-07T12:58:45.179Z,58.53
2022-10-07T13:09:27.829Z,59.76
2022-10-07T13:19:46.449Z,59.89
2022-10-07T13:30:06.857Z,60.39
2022-10-07T13:40:29.701Z,61.17
2022-10-07T13:50:39.486Z,61.08
2022-10-07T14:00:48.438Z,61.45
2022-10-07T14:11:05.315Z,62.15
2022-10-07T14:21:21.262Z,62.94
2022-10-07T14:31:50.491Z,63.76
2022-10-07T14:42:04.493Z,64.43
2022-10-07T14:52:19.017Z,65.21
2022-10-07T15:02:27.751Z,65.10
2022-10-07T15:23:39.299Z,65.15
2022-10-07T15:33:53.208Z,64.89
2022-10-07T15:44:07.116Z,66.79
2022-10-07T15:54:29.486Z,66.58
2022-10-07T16:05:06.015Z,66.78
2022-10-07T16:15:24.403Z,68.06
2022-10-07T16:25:34.373Z,69.55
2022-10-07T16:35:44.164Z,70.92
2022-10-07T16:45:49.333Z,71.37
2022-10-07T16:57:08.461Z,70.29
2022-10-07T17:07:29.374Z,71.81
2022-10-07T17:17:45.045Z,74.92
2022-10-07T17:27:52.707Z,76.34
2022-10-07T17:37:59.688Z,76.76
2022-10-07T17:48:07.875Z,78.14
2022-10-07T17:58:17.604Z,78.42
2022-10-07T18:08:36.240Z,78.32
2022-10-07T18:18:42.373Z,78.44
2022-10-07T18:29:02.945Z,77.87
2022-10-07T18:39:15.196Z,78.65
2022-10-07T18:49:26.851Z,78.81
2022-10-07T19:09:57.005Z,77.32
2022-10-07T19:20:03.676Z,75.36
2022-10-07T19:30:15.254Z,75.63
2022-10-07T19:40:29.811Z,75.27
2022-10-07T19:50:45.968Z,74.86
2022-10-07T20:11:38.983Z,74.65
2022-10-07T20:21:46.331Z,75.05
2022-10-07T20:32:01.362Z,75.50
2022-10-07T20:52:46.466Z,76.79
2022-10-07T21:02:52.096Z,77.79
2022-10-07T21:12:57.194Z,77.98
2022-10-07T21:23:10.121Z,78.29
2022-10-07T21:33:17.540Z,78.51
2022-10-07T21:43:23.881Z,78.97
2022-10-07T21:53:29.851Z,79.85
2022-10-07T22:03:35.261Z,79.70
2022-10-07T22:24:42.409Z,79.98
2022-10-07T22:35:12.116Z,81.14
2022-10-07T22:45:24.013Z,80.97
2022-10-07T22:55:33.989Z,81.78
2022-10-07T23:05:43.011Z,81.82
2022-10-07T23:15:55.911Z,82.49
2022-10-07T23:26:17.981Z,82.75
2022-10-07T23:36:25.896Z,81.04
2022-10-07T23:46:47.715Z,83.15
2022-10-07T23:57:03.944Z,83.75
